sensor_id;sensor_type;location;lat;lon;timestamp;P1;P2;P0
69746;PMS7003;57018;50.278;19.134;2024-02-26T00:00:13;71.50;54.00;34.00
69746;PMS7003;57018;50.278;19.134;2024-02-26T00:02:46;71.00;57.00;36.00
69746;PMS7003;57018;50.278;19.134;2024-02-26T00:05:18;69.50;55.50;37.00
69746;PMS7003;57018;50.278;19.134;2024-02-26T00:07:51;69.00;54.00;34.00
69746;PMS7003;57018;50.278;19.134;2024-02-26T00:10:23;64.67;48.67;29.33
69746;PMS7003;57018;50.278;19.134;2024-02-26T00:12:53;67.00;54.00;32.50
69746;PMS7003;57018;50.278;19.134;2024-02-26T00:15:23;74.00;54.00;31.00
69746;PMS7003;57018;50.278;19.134;2024-02-26T00:17:54;68.00;53.00;35.00
69746;PMS7003;57018;50.278;19.134;2024-02-26T00:20:27;70.00;50.00;35.00
69746;PMS7003;57018;50.278;19.134;2024-02-26T00:22:57;65.50;49.00;31.00
69746;PMS7003;57018;50.278;19.134;2024-02-26T00:25:29;58.67;44.00;21.67
69746;PMS7003;57018;50.278;19.134;2024-02-26T00:28:03;65.00;51.00;34.00
69746;PMS7003;57018;50.278;19.134;2024-02-26T00:30:34;68.00;53.00;34.00
69746;PMS7003;57018;50.278;19.134;2024-02-26T00:33:04;65.50;53.00;35.00
69746;PMS7003;57018;50.278;19.134;2024-02-26T00:35:34;71.00;56.00;36.00
69746;PMS7003;57018;50.278;19.134;2024-02-26T00:38:04;76.25;57.75;35.50
69746;PMS7003;57018;50.278;19.134;2024-02-26T00:40:35;65.00;53.00;36.00
69746;PMS7003;57018;50.278;19.134;2024-02-26T00:43:05;70.00;58.00;36.50
69746;PMS7003;57018;50.278;19.134;2024-02-26T00:45:38;68.50;56.50;36.00
69746;PMS7003;57018;50.278;19.134;2024-02-26T00:48:08;65.00;53.00;34.00
69746;PMS7003;57018;50.278;19.134;2024-02-26T00:50:41;72.00;53.00;34.00
69746;PMS7003;57018;50.278;19.134;2024-02-26T00:53:11;60.00;48.00;30.00
69746;PMS7003;57018;50.278;19.134;2024-02-26T00:55:41;64.00;50.00;31.00
69746;PMS7003;57018;50.278;19.134;2024-02-26T00:58:13;71.50;57.00;33.00
69746;PMS7003;57018;50.278;19.134;2024-02-26T01:00:43;78.00;58.50;38.00
69746;PMS7003;57018;50.278;19.134;2024-02-26T01:03:13;70.00;55.00;35.00
69746;PMS7003;57018;50.278;19.134;2024-02-26T01:05:46;59.00;48.00;25.00
69746;PMS7003;57018;50.278;19.134;2024-02-26T01:08:16;70.00;54.50;32.25
69746;PMS7003;57018;50.278;19.134;2024-02-26T01:10:46;71.00;56.50;35.50
69746;PMS7003;57018;50.278;19.134;2024-02-26T01:13:16;72.00;55.67;34.00
69746;PMS7003;57018;50.278;19.134;2024-02-26T01:15:47;72.50;54.50;36.50
69746;PMS7003;57018;50.278;19.134;2024-02-26T01:18:17;72.50;58.50;37.00
69746;PMS7003;57018;50.278;19.134;2024-02-26T01:20:47;74.00;57.00;35.00
69746;PMS7003;57018;50.278;19.134;2024-02-26T01:23:21;75.67;58.33;36.33
69746;PMS7003;57018;50.278;19.134;2024-02-26T01:25:54;75.00;57.00;35.00
69746;PMS7003;57018;50.278;19.134;2024-02-26T01:28:26;66.00;52.00;32.00
69746;PMS7003;57018;50.278;19.134;2024-02-26T01:30:56;64.67;50.00;34.33
69746;PMS7003;57018;50.278;19.134;2024-02-26T01:33:27;68.00;55.00;35.00
69746;PMS7003;57018;50.278;19.134;2024-02-26T01:35:57;72.50;56.50;36.00
69746;PMS7003;57018;50.278;19.134;2024-02-26T01:38:27;74.50;56.00;34.00
69746;PMS7003;57018;50.278;19.134;2024-02-26T01:40:58;79.50;62.50;41.00
69746;PMS7003;57018;50.278;19.134;2024-02-26T01:43:30;73.00;56.50;35.00
69746;PMS7003;57018;50.278;19.134;2024-02-26T01:48:48;76.50;59.50;38.50
69746;PMS7003;57018;50.278;19.134;2024-02-26T01:51:21;79.00;61.00;38.50
69746;PMS7003;57018;50.278;19.134;2024-02-26T01:53:51;77.00;59.00;37.00
69746;PMS7003;57018;50.278;19.134;2024-02-26T01:56:21;70.00;54.00;37.00
69746;PMS7003;57018;50.278;19.134;2024-02-26T01:58:57;76.50;60.50;39.00
69746;PMS7003;57018;50.278;19.134;2024-02-26T02:01:28;76.50;58.00;37.00
69746;PMS7003;57018;50.278;19.134;2024-02-26T02:04:00;81.00;62.00;39.00
69746;PMS7003;57018;50.278;19.134;2024-02-26T02:06:30;71.00;57.00;38.00
69746;PMS7003;57018;50.278;19.134;2024-02-26T02:09:01;72.50;56.50;36.50
69746;PMS7003;57018;50.278;19.134;2024-02-26T02:11:34;82.00;65.00;39.00
69746;PMS7003;57018;50.278;19.134;2024-02-26T02:14:04;85.00;65.00;38.50
69746;PMS7003;57018;50.278;19.134;2024-02-26T02:16:34;82.00;64.00;39.00
69746;PMS7003;57018;50.278;19.134;2024-02-26T02:19:05;81.00;62.00;40.00
69746;PMS7003;57018;50.278;19.134;2024-02-26T02:21:35;79.00;62.00;39.00
69746;PMS7003;57018;50.278;19.134;2024-02-26T02:24:07;73.00;60.00;40.00
69746;PMS7003;57018;50.278;19.134;2024-02-26T02:26:37;76.00;58.50;36.00
69746;PMS7003;57018;50.278;19.134;2024-02-26T02:29:08;71.00;56.50;37.00
69746;PMS7003;57018;50.278;19.134;2024-02-26T02:31:39;74.00;57.00;37.00
69746;PMS7003;57018;50.278;19.134;2024-02-26T02:34:09;73.00;57.00;36.00
69746;PMS7003;57018;50.278;19.134;2024-02-26T02:36:51;73.00;59.00;37.00
69746;PMS7003;57018;50.278;19.134;2024-02-26T02:39:23;64.00;52.00;34.00
69746;PMS7003;57018;50.278;19.134;2024-02-26T02:41:55;62.00;51.00;34.00
69746;PMS7003;57018;50.278;19.134;2024-02-26T02:44:28;53.50;42.00;33.00
69746;PMS7003;57018;50.278;19.134;2024-02-26T02:46:58;65.00;53.00;36.00
69746;PMS7003;57018;50.278;19.134;2024-02-26T02:49:33;69.00;53.00;34.00
69746;PMS7003;57018;50.278;19.134;2024-02-26T02:52:06;63.00;47.00;30.00
69746;PMS7003;57018;50.278;19.134;2024-02-26T02:54:36;65.00;47.00;30.00
69746;PMS7003;57018;50.278;19.134;2024-02-26T02:59:37;44.33;40.00;27.33
69746;PMS7003;57018;50.278;19.134;2024-02-26T03:02:08;55.00;46.00;31.00
69746;PMS7003;57018;50.278;19.134;2024-02-26T03:04:38;57.50;47.00;30.50
69746;PMS7003;57018;50.278;19.134;2024-02-26T03:07:10;61.00;52.00;32.00
69746;PMS7003;57018;50.278;19.134;2024-02-26T03:09:40;59.00;45.00;28.00
69746;PMS7003;57018;50.278;19.134;2024-02-26T03:12:10;62.00;50.00;31.00
69746;PMS7003;57018;50.278;19.134;2024-02-26T03:14:41;58.00;46.00;28.50
69746;PMS7003;57018;50.278;19.134;2024-02-26T03:17:13;58.00;46.00;29.00
69746;PMS7003;57018;50.278;19.134;2024-02-26T03:19:43;58.50;46.00;29.00
69746;PMS7003;57018;50.278;19.134;2024-02-26T03:22:14;58.50;47.00;31.00
69746;PMS7003;57018;50.278;19.134;2024-02-26T03:24:44;59.00;49.00;31.00
69746;PMS7003;57018;50.278;19.134;2024-02-26T03:27:16;54.00;43.00;27.00
69746;PMS7003;57018;50.278;19.134;2024-02-26T03:29:47;60.25;48.50;31.00
69746;PMS7003;57018;50.278;19.134;2024-02-26T03:32:17;63.00;52.00;32.00
69746;PMS7003;57018;50.278;19.134;2024-02-26T03:34:49;65.00;44.00;28.00
69746;PMS7003;57018;50.278;19.134;2024-02-26T03:37:21;67.00;51.00;33.00
69746;PMS7003;57018;50.278;19.134;2024-02-26T03:39:55;57.00;48.00;31.00
69746;PMS7003;57018;50.278;19.134;2024-02-26T03:42:28;52.00;45.00;28.00
69746;PMS7003;57018;50.278;19.134;2024-02-26T03:44:58;63.00;47.00;31.00
69746;PMS7003;57018;50.278;19.134;2024-02-26T03:47:28;59.00;48.00;32.00
69746;PMS7003;57018;50.278;19.134;2024-02-26T03:49:58;61.00;51.00;32.00
69746;PMS7003;57018;50.278;19.134;2024-02-26T03:52:28;58.00;48.50;32.00
69746;PMS7003;57018;50.278;19.134;2024-02-26T03:54:58;52.50;44.50;28.00
69746;PMS7003;57018;50.278;19.134;2024-02-26T03:57:28;61.00;50.00;31.00
69746;PMS7003;57018;50.278;19.134;2024-02-26T03:59:58;60.00;46.00;30.00
69746;PMS7003;57018;50.278;19.134;2024-02-26T04:02:28;60.00;44.50;30.50
69746;PMS7003;57018;50.278;19.134;2024-02-26T04:05:00;57.00;45.00;31.00
69746;PMS7003;57018;50.278;19.134;2024-02-26T04:07:33;59.67;48.00;32.00
69746;PMS7003;57018;50.278;19.134;2024-02-26T04:10:07;57.50;46.50;31.00
69746;PMS7003;57018;50.278;19.134;2024-02-26T04:12:39;58.00;44.00;27.00
69746;PMS7003;57018;50.278;19.134;2024-02-26T04:15:10;59.00;48.00;32.00
69746;PMS7003;57018;50.278;19.134;2024-02-26T04:17:46;63.67;51.33;33.33
69746;PMS7003;57018;50.278;19.134;2024-02-26T04:20:16;63.00;49.00;31.00
69746;PMS7003;57018;50.278;19.134;2024-02-26T04:22:47;53.00;45.00;29.00
69746;PMS7003;57018;50.278;19.134;2024-02-26T04:25:20;56.00;46.00;30.00
69746;PMS7003;57018;50.278;19.134;2024-02-26T04:27:50;61.00;46.00;30.00
69746;PMS7003;57018;50.278;19.134;2024-02-26T04:30:20;64.00;49.50;32.00
69746;PMS7003;57018;50.278;19.134;2024-02-26T04:32:51;59.50;46.75;29.75
69746;PMS7003;57018;50.278;19.134;2024-02-26T04:35:23;61.50;50.00;31.00
69746;PMS7003;57018;50.278;19.134;2024-02-26T04:37:56;66.50;52.00;34.50
69746;PMS7003;57018;50.278;19.134;2024-02-26T04:40:26;73.00;55.00;35.00
69746;PMS7003;57018;50.278;19.134;2024-02-26T04:42:59;64.00;50.67;34.00
69746;PMS7003;57018;50.278;19.134;2024-02-26T04:45:29;65.00;49.00;33.00
69746;PMS7003;57018;50.278;19.134;2024-02-26T04:48:02;56.50;46.50;31.00
69746;PMS7003;57018;50.278;19.134;2024-02-26T04:50:33;31.00;20.00;11.50
69746;PMS7003;57018;50.278;19.134;2024-02-26T04:55:32;65.00;53.00;35.00
69746;PMS7003;57018;50.278;19.134;2024-02-26T04:58:05;44.50;38.00;18.25
69746;PMS7003;57018;50.278;19.134;2024-02-26T05:00:38;70.00;56.00;35.00
69746;PMS7003;57018;50.278;19.134;2024-02-26T05:03:08;66.50;52.50;34.00
69746;PMS7003;57018;50.278;19.134;2024-02-26T05:05:40;66.00;54.00;34.00
69746;PMS7003;57018;50.278;19.134;2024-02-26T05:08:10;64.00;53.00;34.50
69746;PMS7003;57018;50.278;19.134;2024-02-26T05:10:40;67.00;55.00;34.00
69746;PMS7003;57018;50.278;19.134;2024-02-26T05:13:13;66.50;52.00;34.50
69746;PMS7003;57018;50.278;19.134;2024-02-26T05:15:44;65.33;53.67;33.67
69746;PMS7003;57018;50.278;19.134;2024-02-26T05:18:19;70.50;54.50;36.50
69746;PMS7003;57018;50.278;19.134;2024-02-26T05:20:51;66.00;50.00;33.33
69746;PMS7003;57018;50.278;19.134;2024-02-26T05:23:24;62.00;49.00;31.00
69746;PMS7003;57018;50.278;19.134;2024-02-26T05:25:54;60.50;48.00;33.50
69746;PMS7003;57018;50.278;19.134;2024-02-26T05:28:24;67.50;54.00;33.50
69746;PMS7003;57018;50.278;19.134;2024-02-26T05:30:57;66.00;52.50;33.50
69746;PMS7003;57018;50.278;19.134;2024-02-26T05:33:27;62.50;50.50;29.50
69746;PMS7003;57018;50.278;19.134;2024-02-26T05:35:57;65.00;53.00;32.00
69746;PMS7003;57018;50.278;19.134;2024-02-26T05:38:30;71.00;60.00;39.00
69746;PMS7003;57018;50.278;19.134;2024-02-26T05:41:01;70.50;57.00;36.00
69746;PMS7003;57018;50.278;19.134;2024-02-26T05:43:32;76.50;60.50;38.50
69746;PMS7003;57018;50.278;19.134;2024-02-26T05:46:05;73.50;58.50;37.00
69746;PMS7003;57018;50.278;19.134;2024-02-26T05:48:37;83.00;65.00;43.00
69746;PMS7003;57018;50.278;19.134;2024-02-26T05:51:09;81.00;64.00;43.00
69746;PMS7003;57018;50.278;19.134;2024-02-26T05:53:42;73.00;57.50;39.00
69746;PMS7003;57018;50.278;19.134;2024-02-26T05:56:13;73.00;58.00;40.00
69746;PMS7003;57018;50.278;19.134;2024-02-26T05:58:43;78.00;59.00;42.00
69746;PMS7003;57018;50.278;19.134;2024-02-26T06:01:14;76.00;59.50;39.50
69746;PMS7003;57018;50.278;19.134;2024-02-26T06:03:45;78.00;63.00;40.00
69746;PMS7003;57018;50.278;19.134;2024-02-26T06:06:15;81.00;65.00;40.00
69746;PMS7003;57018;50.278;19.134;2024-02-26T06:08:45;81.50;63.00;39.00
69746;PMS7003;57018;50.278;19.134;2024-02-26T06:11:16;89.00;66.00;42.50
69746;PMS7003;57018;50.278;19.134;2024-02-26T06:13:49;89.67;70.67;43.33
69746;PMS7003;57018;50.278;19.134;2024-02-26T06:16:19;83.50;63.00;42.00
69746;PMS7003;57018;50.278;19.134;2024-02-26T06:18:50;90.00;73.00;45.00
69746;PMS7003;57018;50.278;19.134;2024-02-26T06:21:20;90.00;74.50;46.00
69746;PMS7003;57018;50.278;19.134;2024-02-26T06:23:50;80.00;60.00;40.00
69746;PMS7003;57018;50.278;19.134;2024-02-26T06:26:23;79.50;61.00;38.00
69746;PMS7003;57018;50.278;19.134;2024-02-26T06:28:55;76.00;61.50;40.00
69746;PMS7003;57018;50.278;19.134;2024-02-26T06:31:25;78.50;60.00;40.00
69746;PMS7003;57018;50.278;19.134;2024-02-26T06:33:56;64.00;52.00;32.00
69746;PMS7003;57018;50.278;19.134;2024-02-26T06:36:26;81.67;61.33;40.33
69746;PMS7003;57018;50.278;19.134;2024-02-26T06:39:00;54.00;45.00;22.00
69746;PMS7003;57018;50.278;19.134;2024-02-26T06:41:34;64.00;51.00;31.00
69746;PMS7003;57018;50.278;19.134;2024-02-26T06:44:06;79.00;61.00;38.00
69746;PMS7003;57018;50.278;19.134;2024-02-26T06:46:39;82.00;61.00;40.00
69746;PMS7003;57018;50.278;19.134;2024-02-26T06:49:09;79.50;61.50;39.50
69746;PMS7003;57018;50.278;19.134;2024-02-26T06:51:42;73.50;58.50;37.00
69746;PMS7003;57018;50.278;19.134;2024-02-26T06:54:14;74.00;58.67;36.00
69746;PMS7003;57018;50.278;19.134;2024-02-26T06:56:45;75.50;61.00;38.00
69746;PMS7003;57018;50.278;19.134;2024-02-26T06:59:17;75.50;58.50;38.50
69746;PMS7003;57018;50.278;19.134;2024-02-26T07:01:48;75.00;57.00;38.00
69746;PMS7003;57018;50.278;19.134;2024-02-26T07:04:18;79.00;66.00;40.00
69746;PMS7003;57018;50.278;19.134;2024-02-26T07:06:48;68.00;54.00;34.00
69746;PMS7003;57018;50.278;19.134;2024-02-26T07:09:21;66.00;52.33;34.00
69746;PMS7003;57018;50.278;19.134;2024-02-26T07:11:53;69.00;53.00;35.00
69746;PMS7003;57018;50.278;19.134;2024-02-26T07:14:25;67.00;53.00;34.00
69746;PMS7003;57018;50.278;19.134;2024-02-26T07:16:58;81.00;64.00;45.00
69746;PMS7003;57018;50.278;19.134;2024-02-26T07:19:30;61.50;49.50;35.00
69746;PMS7003;57018;50.278;19.134;2024-02-26T07:22:03;61.00;48.33;33.33
69746;PMS7003;57018;50.278;19.134;2024-02-26T07:24:36;60.00;49.00;30.00
69746;PMS7003;57018;50.278;19.134;2024-02-26T07:27:08;55.00;45.00;30.00
69746;PMS7003;57018;50.278;19.134;2024-02-26T07:29:39;52.00;43.00;28.00
69746;PMS7003;57018;50.278;19.134;2024-02-26T07:32:09;55.00;44.50;28.00
69746;PMS7003;57018;50.278;19.134;2024-02-26T07:34:39;39.00;36.00;24.00
69746;PMS7003;57018;50.278;19.134;2024-02-26T07:37:11;38.00;34.00;22.00
69746;PMS7003;57018;50.278;19.134;2024-02-26T07:39:41;35.00;31.00;21.00
69746;PMS7003;57018;50.278;19.134;2024-02-26T07:42:11;34.50;29.50;20.00
69746;PMS7003;57018;50.278;19.134;2024-02-26T07:44:41;32.00;26.00;15.00
69746;PMS7003;57018;50.278;19.134;2024-02-26T07:47:14;23.00;17.00;11.00
69746;PMS7003;57018;50.278;19.134;2024-02-26T07:49:47;22.00;22.00;13.00
69746;PMS7003;57018;50.278;19.134;2024-02-26T07:52:17;20.00;20.00;16.00
69746;PMS7003;57018;50.278;19.134;2024-02-26T07:54:47;27.50;25.50;16.50
69746;PMS7003;57018;50.278;19.134;2024-02-26T07:57:22;24.00;24.00;14.00
69746;PMS7003;57018;50.278;19.134;2024-02-26T07:59:53;19.00;17.50;11.00
69746;PMS7003;57018;50.278;19.134;2024-02-26T08:02:23;28.00;20.00;11.00
69746;PMS7003;57018;50.278;19.134;2024-02-26T08:04:56;16.50;16.50;11.00
69746;PMS7003;57018;50.278;19.134;2024-02-26T08:07:26;19.00;18.00;12.50
69746;PMS7003;57018;50.278;19.134;2024-02-26T08:09:56;20.00;17.00;12.00
69746;PMS7003;57018;50.278;19.134;2024-02-26T08:12:26;22.00;17.50;11.50
69746;PMS7003;57018;50.278;19.134;2024-02-26T08:14:59;17.00;16.00;12.00
69746;PMS7003;57018;50.278;19.134;2024-02-26T08:17:30;15.75;14.00;9.50
69746;PMS7003;57018;50.278;19.134;2024-02-26T08:20:01;19.00;15.00;10.50
69746;PMS7003;57018;50.278;19.134;2024-02-26T08:22:34;21.00;18.33;12.67
69746;PMS7003;57018;50.278;19.134;2024-02-26T08:25:06;19.00;18.50;12.00
69746;PMS7003;57018;50.278;19.134;2024-02-26T08:27:37;18.67;15.67;9.33
69746;PMS7003;57018;50.278;19.134;2024-02-26T08:30:11;22.67;19.67;11.00
69746;PMS7003;57018;50.278;19.134;2024-02-26T08:32:43;23.00;18.00;10.00
69746;PMS7003;57018;50.278;19.134;2024-02-26T08:35:14;21.00;20.00;12.00
69746;PMS7003;57018;50.278;19.134;2024-02-26T08:37:45;14.75;14.25;10.00
69746;PMS7003;57018;50.278;19.134;2024-02-26T08:40:18;19.00;19.00;12.00
69746;PMS7003;57018;50.278;19.134;2024-02-26T08:42:48;16.67;16.67;10.33
69746;PMS7003;57018;50.278;19.134;2024-02-26T08:45:21;24.00;22.00;13.00
69746;PMS7003;57018;50.278;19.134;2024-02-26T08:47:54;26.50;21.00;13.50
69746;PMS7003;57018;50.278;19.134;2024-02-26T08:50:27;23.00;21.00;14.00
69746;PMS7003;57018;50.278;19.134;2024-02-26T08:52:57;22.00;17.00;12.00
69746;PMS7003;57018;50.278;19.134;2024-02-26T08:55:28;24.00;19.00;14.00
69746;PMS7003;57018;50.278;19.134;2024-02-26T08:58:00;16.00;14.00;9.00
69746;PMS7003;57018;50.278;19.134;2024-02-26T09:00:31;18.00;16.00;11.00
69746;PMS7003;57018;50.278;19.134;2024-02-26T09:03:04;15.00;13.00;8.00
69746;PMS7003;57018;50.278;19.134;2024-02-26T09:05:34;16.50;16.50;11.00
69746;PMS7003;57018;50.278;19.134;2024-02-26T09:08:05;17.50;16.50;11.50
69746;PMS7003;57018;50.278;19.134;2024-02-26T09:10:36;21.00;16.00;11.00
69746;PMS7003;57018;50.278;19.134;2024-02-26T09:13:08;21.50;17.00;12.00
69746;PMS7003;57018;50.278;19.134;2024-02-26T09:15:38;19.00;17.00;11.33
69746;PMS7003;57018;50.278;19.134;2024-02-26T09:18:08;23.00;23.00;13.50
69746;PMS7003;57018;50.278;19.134;2024-02-26T09:20:41;18.00;16.67;11.00
69746;PMS7003;57018;50.278;19.134;2024-02-26T09:23:11;21.00;19.00;13.50
69746;PMS7003;57018;50.278;19.134;2024-02-26T09:25:43;17.00;16.00;11.50
69746;PMS7003;57018;50.278;19.134;2024-02-26T09:28:14;20.50;18.50;13.50
69746;PMS7003;57018;50.278;19.134;2024-02-26T09:30:47;14.00;14.00;10.00
69746;PMS7003;57018;50.278;19.134;2024-02-26T09:33:18;20.00;16.00;11.00
69746;PMS7003;57018;50.278;19.134;2024-02-26T09:35:50;18.00;15.00;10.50
69746;PMS7003;57018;50.278;19.134;2024-02-26T09:38:25;17.00;15.33;11.33
69746;PMS7003;57018;50.278;19.134;2024-02-26T09:40:58;15.00;14.50;10.00
69746;PMS7003;57018;50.278;19.134;2024-02-26T09:43:30;16.50;14.50;11.00
69746;PMS7003;57018;50.278;19.134;2024-02-26T09:46:05;19.00;17.00;11.00
69746;PMS7003;57018;50.278;19.134;2024-02-26T09:48:39;18.00;18.00;12.00
69746;PMS7003;57018;50.278;19.134;2024-02-26T09:51:10;19.00;17.00;12.00
69746;PMS7003;57018;50.278;19.134;2024-02-26T09:53:44;16.00;16.00;11.50
69746;PMS7003;57018;50.278;19.134;2024-02-26T09:56:19;18.00;16.67;11.67
69746;PMS7003;57018;50.278;19.134;2024-02-26T09:58:52;14.00;14.00;11.00
69746;PMS7003;57018;50.278;19.134;2024-02-26T10:01:25;15.00;15.00;10.00
69746;PMS7003;57018;50.278;19.134;2024-02-26T10:03:59;11.00;10.00;6.50
69746;PMS7003;57018;50.278;19.134;2024-02-26T10:06:33;12.00;12.00;8.00
69746;PMS7003;57018;50.278;19.134;2024-02-26T10:09:04;9.67;9.67;7.00
69746;PMS7003;57018;50.278;19.134;2024-02-26T10:11:39;10.00;10.00;7.00
69746;PMS7003;57018;50.278;19.134;2024-02-26T10:14:10;11.00;11.00;7.00
69746;PMS7003;57018;50.278;19.134;2024-02-26T10:16:40;10.00;10.00;6.00
69746;PMS7003;57018;50.278;19.134;2024-02-26T10:19:11;8.00;8.00;6.00
69746;PMS7003;57018;50.278;19.134;2024-02-26T10:21:57;4.00;4.00;3.00
69746;PMS7003;57018;50.278;19.134;2024-02-26T10:24:30;4.00;4.00;2.00
69746;PMS7003;57018;50.278;19.134;2024-02-26T10:27:05;3.00;3.00;2.00
69746;PMS7003;57018;50.278;19.134;2024-02-26T10:29:36;3.00;3.00;2.00
69746;PMS7003;57018;50.278;19.134;2024-02-26T10:32:07;3.00;3.00;2.00
69746;PMS7003;57018;50.278;19.134;2024-02-26T10:34:40;4.00;4.00;3.00
69746;PMS7003;57018;50.278;19.134;2024-02-26T10:37:10;2.50;2.50;2.00
69746;PMS7003;57018;50.278;19.134;2024-02-26T10:39:40;3.00;3.00;2.00
69746;PMS7003;57018;50.278;19.134;2024-02-26T10:42:18;3.00;1.00;1.00
69746;PMS7003;57018;50.278;19.134;2024-02-26T10:44:48;2.00;2.00;1.00
69746;PMS7003;57018;50.278;19.134;2024-02-26T10:47:19;3.50;2.50;2.00
69746;PMS7003;57018;50.278;19.134;2024-02-26T10:49:49;4.00;4.00;2.00
69746;PMS7003;57018;50.278;19.134;2024-02-26T10:52:20;3.00;3.00;2.00
69746;PMS7003;57018;50.278;19.134;2024-02-26T10:54:52;3.00;3.00;3.00
69746;PMS7003;57018;50.278;19.134;2024-02-26T10:57:24;3.00;3.00;2.00
69746;PMS7003;57018;50.278;19.134;2024-02-26T10:59:59;3.00;3.00;2.00
69746;PMS7003;57018;50.278;19.134;2024-02-26T11:02:32;5.00;3.00;2.00
69746;PMS7003;57018;50.278;19.134;2024-02-26T11:05:04;1.00;1.00;0.00
69746;PMS7003;57018;50.278;19.134;2024-02-26T11:07:36;3.00;3.00;2.00
69746;PMS7003;57018;50.278;19.134;2024-02-26T11:10:07;1.00;1.00;1.00
69746;PMS7003;57018;50.278;19.134;2024-02-26T11:12:41;3.67;3.00;1.00
69746;PMS7003;57018;50.278;19.134;2024-02-26T11:15:12;3.00;3.00;2.00
69746;PMS7003;57018;50.278;19.134;2024-02-26T11:17:46;3.50;3.00;1.50
69746;PMS7003;57018;50.278;19.134;2024-02-26T11:20:16;3.00;3.00;2.00
69746;PMS7003;57018;50.278;19.134;2024-02-26T11:22:47;2.67;2.67;2.00
69746;PMS7003;57018;50.278;19.134;2024-02-26T11:25:20;4.00;4.00;3.00
69746;PMS7003;57018;50.278;19.134;2024-02-26T11:30:21;3.67;3.67;2.00
69746;PMS7003;57018;50.278;19.134;2024-02-26T11:32:53;0.00;0.00;0.00
69746;PMS7003;57018;50.278;19.134;2024-02-26T11:35:28;3.50;3.50;2.50
69746;PMS7003;57018;50.278;19.134;2024-02-26T11:37:58;3.50;3.50;3.00
69746;PMS7003;57018;50.278;19.134;2024-02-26T11:40:31;3.00;3.00;2.50
69746;PMS7003;57018;50.278;19.134;2024-02-26T11:43:08;8.00;5.00;3.00
69746;PMS7003;57018;50.278;19.134;2024-02-26T11:45:54;6.00;6.00;4.00
69746;PMS7003;57018;50.278;19.134;2024-02-26T11:48:28;4.00;4.00;2.00
69746;PMS7003;57018;50.278;19.134;2024-02-26T11:50:58;7.00;7.00;5.00
69746;PMS7003;57018;50.278;19.134;2024-02-26T11:56:21;8.00;5.00;4.00
69746;PMS7003;57018;50.278;19.134;2024-02-26T11:59:03;8.00;7.00;4.00
69746;PMS7003;57018;50.278;19.134;2024-02-26T12:01:41;9.50;6.00;3.50
69746;PMS7003;57018;50.278;19.134;2024-02-26T12:04:18;3.33;3.33;1.33
69746;PMS7003;57018;50.278;19.134;2024-02-26T12:06:57;3.50;3.50;2.50
69746;PMS7003;57018;50.278;19.134;2024-02-26T12:09:32;6.00;6.00;3.00
69746;PMS7003;57018;50.278;19.134;2024-02-26T12:12:05;5.00;4.00;3.00
69746;PMS7003;57018;50.278;19.134;2024-02-26T12:14:36;5.00;5.00;3.00
69746;PMS7003;57018;50.278;19.134;2024-02-26T12:17:07;6.00;6.00;3.00
69746;PMS7003;57018;50.278;19.134;2024-02-26T12:19:52;7.50;7.50;5.00
69746;PMS7003;57018;50.278;19.134;2024-02-26T12:22:25;7.00;6.00;4.00
69746;PMS7003;57018;50.278;19.134;2024-02-26T12:24:59;8.00;8.00;5.00
69746;PMS7003;57018;50.278;19.134;2024-02-26T12:27:30;6.00;4.00;4.00
69746;PMS7003;57018;50.278;19.134;2024-02-26T12:30:02;4.00;4.00;2.25
69746;PMS7003;57018;50.278;19.134;2024-02-26T12:32:34;4.50;4.50;3.00
69746;PMS7003;57018;50.278;19.134;2024-02-26T12:35:05;6.00;6.00;4.00
69746;PMS7003;57018;50.278;19.134;2024-02-26T12:37:36;8.50;7.00;3.00
69746;PMS7003;57018;50.278;19.134;2024-02-26T12:40:07;5.00;5.00;3.33
69746;PMS7003;57018;50.278;19.134;2024-02-26T12:42:39;7.00;4.00;2.00
69746;PMS7003;57018;50.278;19.134;2024-02-26T12:45:10;4.50;4.00;4.00
69746;PMS7003;57018;50.278;19.134;2024-02-26T12:47:43;4.00;4.00;3.00
69746;PMS7003;57018;50.278;19.134;2024-02-26T12:50:14;5.00;5.00;4.00
69746;PMS7003;57018;50.278;19.134;2024-02-26T12:52:47;6.00;5.00;4.00
69746;PMS7003;57018;50.278;19.134;2024-02-26T12:55:21;6.50;6.50;3.50
69746;PMS7003;57018;50.278;19.134;2024-02-26T12:57:52;5.00;5.00;3.00
69746;PMS7003;57018;50.278;19.134;2024-02-26T13:00:24;8.00;7.00;4.00
69746;PMS7003;57018;50.278;19.134;2024-02-26T13:02:55;7.00;6.50;5.00
69746;PMS7003;57018;50.278;19.134;2024-02-26T13:05:30;7.00;7.00;4.00
69746;PMS7003;57018;50.278;19.134;2024-02-26T13:08:04;13.50;10.50;7.00
69746;PMS7003;57018;50.278;19.134;2024-02-26T13:10:38;11.00;9.50;6.00
69746;PMS7003;57018;50.278;19.134;2024-02-26T13:13:11;12.00;10.00;6.50
69746;PMS7003;57018;50.278;19.134;2024-02-26T13:15:42;9.50;9.50;5.00
69746;PMS7003;57018;50.278;19.134;2024-02-26T13:18:13;9.00;6.00;2.00
69746;PMS7003;57018;50.278;19.134;2024-02-26T13:20:43;10.00;8.00;5.00
69746;PMS7003;57018;50.278;19.134;2024-02-26T13:23:13;8.33;8.33;6.33
69746;PMS7003;57018;50.278;19.134;2024-02-26T13:25:46;11.50;11.00;7.00
69746;PMS7003;57018;50.278;19.134;2024-02-26T13:28:19;9.50;9.00;7.00
69746;PMS7003;57018;50.278;19.134;2024-02-26T13:30:51;12.50;9.00;6.00
69746;PMS7003;57018;50.278;19.134;2024-02-26T13:33:27;11.00;10.00;7.50
69746;PMS7003;57018;50.278;19.134;2024-02-26T13:36:00;15.00;13.00;8.00
69746;PMS7003;57018;50.278;19.134;2024-02-26T13:38:34;12.00;12.00;8.00
69746;PMS7003;57018;50.278;19.134;2024-02-26T13:41:08;9.00;9.00;6.50
69746;PMS7003;57018;50.278;19.134;2024-02-26T13:43:38;15.67;12.00;8.00
69746;PMS7003;57018;50.278;19.134;2024-02-26T13:46:11;11.50;10.00;7.00
69746;PMS7003;57018;50.278;19.134;2024-02-26T13:48:42;11.00;10.00;7.00
69746;PMS7003;57018;50.278;19.134;2024-02-26T13:51:17;10.67;10.67;6.33
69746;PMS7003;57018;50.278;19.134;2024-02-26T13:53:47;13.50;12.50;8.50
69746;PMS7003;57018;50.278;19.134;2024-02-26T13:56:17;19.00;15.50;10.75
69746;PMS7003;57018;50.278;19.134;2024-02-26T13:58:47;15.50;14.50;8.00
69746;PMS7003;57018;50.278;19.134;2024-02-26T14:01:20;12.50;11.00;8.00
69746;PMS7003;57018;50.278;19.134;2024-02-26T14:03:53;14.50;13.50;8.00
69746;PMS7003;57018;50.278;19.134;2024-02-26T14:06:24;15.00;12.00;8.00
69746;PMS7003;57018;50.278;19.134;2024-02-26T14:08:54;14.50;13.00;9.00
69746;PMS7003;57018;50.278;19.134;2024-02-26T14:11:25;15.00;14.00;9.00
69746;PMS7003;57018;50.278;19.134;2024-02-26T14:13:56;19.00;17.00;10.00
69746;PMS7003;57018;50.278;19.134;2024-02-26T14:16:29;12.00;12.00;8.00
69746;PMS7003;57018;50.278;19.134;2024-02-26T14:19:01;14.75;12.50;8.75